createdAt,value
2022-12-15T00:03:43.445Z,97147.84
2022-12-15T00:09:19.850Z,97155.75
2022-12-15T00:14:57.315Z,97166.19
2022-12-15T00:20:35.324Z,97168.13
2022-12-15T00:26:15.293Z,97164.81
2022-12-15T00:31:53.417Z,97168.50
2022-12-15T00:37:30.380Z,97155.44
2022-12-15T00:42:58.299Z,97165.16
2022-12-15T00:48:23.321Z,97168.81
2022-12-15T00:54:01.300Z,97191.56
2022-12-15T00:59:48.305Z,97202.16
2022-12-15T01:05:26.335Z,97209.25
2022-12-15T01:11:03.329Z,97210.16
2022-12-15T01:16:43.438Z,97218.13
2022-12-15T01:22:07.341Z,97227.81
2022-12-15T01:27:32.313Z,97225.19
2022-12-15T01:32:59.358Z,97230.41
2022-12-15T01:38:24.324Z,97234.81
2022-12-15T01:43:50.345Z,97235.72
2022-12-15T01:49:24.356Z,97239.16
2022-12-15T01:54:53.320Z,97242.66
2022-12-15T02:00:25.372Z,97243.34
2022-12-15T02:05:53.367Z,97239.72
2022-12-15T02:11:39.366Z,97247.47
2022-12-15T02:17:16.325Z,97252.72
2022-12-15T02:23:03.321Z,97266.72
2022-12-15T02:28:40.335Z,97270.25
2022-12-15T02:34:15.362Z,97271.94
2022-12-15T02:39:41.342Z,97271.06
2022-12-15T02:45:10.350Z,97289.44
2022-12-15T02:50:56.324Z,97308.56
2022-12-15T02:56:33.358Z,97310.47
2022-12-15T03:02:12.588Z,97319.22
2022-12-15T03:07:41.388Z,97322.75
2022-12-15T03:13:06.378Z,97324.59
2022-12-15T03:18:31.338Z,97328.28
2022-12-15T03:23:58.402Z,97327.66
2022-12-15T03:29:23.374Z,97324.28
2022-12-15T03:34:48.388Z,97328.00
2022-12-15T03:40:17.443Z,97343.75
2022-12-15T03:45:43.401Z,97349.91
2022-12-15T03:51:08.339Z,97358.66
2022-12-15T03:56:35.366Z,97357.06
2022-12-15T04:02:06.496Z,97360.63
2022-12-15T04:07:31.394Z,97364.28
2022-12-15T04:12:58.365Z,97362.59
2022-12-15T04:18:23.395Z,97356.56
2022-12-15T04:24:00.342Z,97373.28
2022-12-15T04:29:40.345Z,97369.91
2022-12-15T04:35:17.350Z,97379.50
2022-12-15T04:40:54.344Z,97381.41
2022-12-15T04:46:34.395Z,97390.22
2022-12-15T04:52:12.402Z,97378.13
2022-12-15T04:57:49.365Z,97380.72
2022-12-15T05:03:30.519Z,97392.88
2022-12-15T05:09:07.397Z,97391.97
2022-12-15T05:14:45.364Z,97414.66
2022-12-15T05:20:22.373Z,97426.97
2022-12-15T05:25:59.378Z,97430.53
2022-12-15T05:31:37.453Z,97437.63
2022-12-15T05:37:05.421Z,97456.97
2022-12-15T05:42:25.373Z,97452.78
2022-12-15T05:47:50.376Z,97462.50
2022-12-15T05:53:17.406Z,97455.59
2022-12-15T05:58:45.383Z,97471.22
2022-12-15T06:04:11.421Z,97466.97
2022-12-15T06:09:39.408Z,97477.56
2022-12-15T06:15:05.394Z,97495.03
2022-12-15T06:20:31.407Z,97509.81
2022-12-15T06:25:58.391Z,97522.94
2022-12-15T06:31:25.502Z,97522.94
2022-12-15T06:36:50.423Z,97520.44
2022-12-15T06:42:19.397Z,97528.25
2022-12-15T06:47:43.373Z,97529.97
2022-12-15T06:53:09.413Z,97532.81
2022-12-15T06:58:37.438Z,97540.75
2022-12-15T07:04:03.612Z,97544.25
2022-12-15T07:09:32.446Z,97546.06
2022-12-15T07:15:00.425Z,97545.19
2022-12-15T07:20:29.035Z,97552.22
2022-12-15T07:25:56.467Z,97552.41
2022-12-15T07:31:26.464Z,97560.41
2022-12-15T07:36:52.644Z,97563.06
2022-12-15T07:42:17.459Z,97565.72
2022-12-15T07:47:45.441Z,97570.94
2022-12-15T07:53:10.447Z,97571.81
2022-12-15T07:58:38.520Z,97570.84
2022-12-15T08:04:05.525Z,97588.06
2022-12-15T08:09:30.439Z,97610.50
2022-12-15T08:14:54.440Z,97612.22
2022-12-15T08:20:22.424Z,97612.09
2022-12-15T08:25:46.484Z,97608.69
2022-12-15T08:31:15.578Z,97628.63
2022-12-15T08:36:42.541Z,97622.50
2022-12-15T08:42:08.444Z,97634.44
2022-12-15T08:47:35.461Z,97637.81
2022-12-15T08:53:29.709Z,97620.38
2022-12-15T08:58:48.454Z,97616.13
2022-12-15T09:04:07.495Z,97622.94
2022-12-15T09:09:35.423Z,97622.78
2022-12-15T09:14:59.496Z,97625.41
2022-12-15T09:20:24.922Z,97632.28
2022-12-15T09:25:54.477Z,97647.94
2022-12-15T09:31:21.487Z,97648.66
2022-12-15T09:36:48.729Z,97647.69
2022-12-15T09:42:33.452Z,97658.84
2022-12-15T09:48:04.475Z,97657.84
2022-12-15T09:59:39.433Z,97661.63
2022-12-15T10:05:10.456Z,97682.22
2022-12-15T10:10:42.562Z,97675.53
2022-12-15T10:16:34.677Z,97681.25
2022-12-15T10:22:03.585Z,97685.75
2022-12-15T10:28:04.455Z,97688.50
2022-12-15T10:33:35.814Z,97689.19
2022-12-15T10:39:00.707Z,97696.28
2022-12-15T10:44:39.492Z,97681.41
2022-12-15T10:50:00.521Z,97675.59
2022-12-15T10:55:50.124Z,97682.72
2022-12-15T11:01:25.558Z,97692.22
2022-12-15T11:06:55.492Z,97687.72
2022-12-15T11:12:45.498Z,97682.53
2022-12-15T11:18:21.490Z,97685.22
2022-12-15T11:24:06.482Z,97690.59
2022-12-15T11:29:43.505Z,97686.41
2022-12-15T11:35:08.494Z,97683.06
2022-12-15T11:40:45.495Z,97678.72
2022-12-15T11:46:26.472Z,97668.31
2022-12-15T11:51:55.476Z,97669.38
2022-12-15T11:57:39.505Z,97654.91
2022-12-15T12:03:17.562Z,97643.72
2022-12-15T12:09:03.587Z,97656.88
2022-12-15T12:14:43.485Z,97667.28
2022-12-15T12:20:14.561Z,97649.09
2022-12-15T12:25:44.479Z,97632.56
2022-12-15T12:31:14.473Z,97626.53
2022-12-15T12:36:39.559Z,97625.72
2022-12-15T12:42:09.581Z,97620.38
2022-12-15T12:47:40.493Z,97607.81
2022-12-15T12:53:08.524Z,97596.78
2022-12-15T12:58:42.522Z,97582.69
2022-12-15T13:04:28.559Z,97584.69
2022-12-15T13:09:59.849Z,97594.94
2022-12-15T13:15:36.958Z,97587.34
2022-12-15T13:21:07.523Z,97579.22
2022-12-15T13:26:34.550Z,97583.91
2022-12-15T13:32:00.605Z,97584.81
2022-12-15T13:38:03.498Z,97570.59
2022-12-15T13:43:50.553Z,97572.09
2022-12-15T13:49:23.531Z,97544.81
2022-12-15T13:54:57.550Z,97566.59
2022-12-15T14:00:29.561Z,97582.44
2022-12-15T14:05:59.556Z,97596.16
2022-12-15T14:17:19.576Z,97584.94
2022-12-15T14:22:44.563Z,97576.28
2022-12-15T14:28:13.549Z,97565.16
2022-12-15T14:33:39.813Z,97567.31
2022-12-15T14:39:09.530Z,97548.66
2022-12-15T14:44:48.102Z,97569.38
2022-12-15T14:50:23.248Z,97563.81
2022-12-15T14:55:49.555Z,97567.38
2022-12-15T15:01:19.618Z,97558.31
2022-12-15T15:06:51.978Z,97552.66
2022-12-15T15:12:20.577Z,97549.59
2022-12-15T15:17:54.627Z,97556.09
2022-12-15T15:23:31.621Z,97558.25
2022-12-15T15:28:56.668Z,97554.00
2022-12-15T15:34:25.537Z,97578.13
2022-12-15T15:39:51.562Z,97594.06
2022-12-15T15:45:15.581Z,97601.66
2022-12-15T15:50:44.559Z,97607.47
2022-12-15T15:56:13.589Z,97604.75
2022-12-15T16:01:38.684Z,97594.00
2022-12-15T16:07:05.579Z,97601.19
2022-12-15T16:12:37.576Z,97608.31
2022-12-15T16:18:02.586Z,97625.25
2022-12-15T16:23:33.592Z,97626.41
2022-12-15T16:28:57.564Z,97625.91
2022-12-15T16:34:22.610Z,97626.19
2022-12-15T16:39:50.568Z,97632.63
2022-12-15T16:45:24.640Z,97630.34
2022-12-15T16:50:51.993Z,97633.97
2022-12-15T16:56:23.607Z,97635.97
2022-12-15T17:01:47.713Z,97615.22
2022-12-15T17:07:19.519Z,97611.78
2022-12-15T17:12:46.575Z,97612.75
2022-12-15T17:18:11.572Z,97617.47
2022-12-15T17:23:38.580Z,97624.19
2022-12-15T17:29:09.643Z,97602.41
2022-12-15T17:34:51.622Z,97606.50
2022-12-15T17:40:27.594Z,97606.41
2022-12-15T17:45:57.607Z,97622.59
2022-12-15T17:51:25.662Z,97634.09
2022-12-15T17:56:49.622Z,97634.59
2022-12-15T18:02:26.808Z,97635.81
2022-12-15T18:07:52.615Z,97637.00
2022-12-15T18:13:17.622Z,97632.16
2022-12-15T18:18:45.657Z,97647.53
2022-12-15T18:24:10.594Z,97649.28
2022-12-15T18:29:35.681Z,97657.34
2022-12-15T18:35:04.620Z,97655.66
2022-12-15T18:40:33.650Z,97646.19
2022-12-15T18:45:59.627Z,97652.41
2022-12-15T18:51:37.639Z,97647.56
2022-12-15T18:57:10.878Z,97648.00
2022-12-15T19:02:35.779Z,97634.47
2022-12-15T19:07:59.644Z,97623.81
2022-12-15T19:13:39.465Z,97636.81
2022-12-15T19:19:19.697Z,97646.59
2022-12-15T19:24:57.681Z,97634.41
2022-12-15T19:30:31.641Z,97622.78
2022-12-15T19:36:01.653Z,97619.31
2022-12-15T19:41:30.620Z,97616.03
2022-12-15T19:46:59.627Z,97612.72
2022-12-15T19:52:28.620Z,97611.72
2022-12-15T19:57:53.662Z,97603.31
2022-12-15T20:03:30.081Z,97608.75
2022-12-15T20:08:57.660Z,97603.00
2022-12-15T20:14:26.639Z,97575.38
2022-12-15T20:19:54.679Z,97570.25
2022-12-15T20:25:19.661Z,97590.47
2022-12-15T20:30:45.648Z,97574.97
2022-12-15T20:36:12.650Z,97569.81
2022-12-15T20:41:38.689Z,97572.50
2022-12-15T20:47:02.626Z,97563.03
2022-12-15T20:52:33.738Z,97545.78
2022-12-15T20:57:57.651Z,97552.91
2022-12-15T21:03:39.746Z,97564.28
2022-12-15T21:09:07.689Z,97566.03
2022-12-15T21:14:34.676Z,97552.13
2022-12-15T21:20:05.637Z,97556.34
2022-12-15T21:25:35.647Z,97547.47
2022-12-15T21:31:00.714Z,97555.25
2022-12-15T21:36:27.681Z,97549.88
2022-12-15T21:41:56.686Z,97558.50
2022-12-15T21:47:32.692Z,97557.53
2022-12-15T21:52:59.701Z,97560.09
2022-12-15T21:58:34.070Z,97573.09
2022-12-15T22:04:07.690Z,97586.22
2022-12-15T22:09:32.685Z,97587.13
2022-12-15T22:15:00.671Z,97589.88
2022-12-15T22:20:27.686Z,97603.06
2022-12-15T22:25:51.704Z,97606.75
2022-12-15T22:31:19.793Z,97612.28
2022-12-15T22:36:43.671Z,97606.47
2022-12-15T22:42:10.768Z,97606.84
2022-12-15T22:47:37.770Z,97608.91
2022-12-15T22:53:02.681Z,97607.13
2022-12-15T22:58:33.245Z,97603.88
2022-12-15T23:04:08.708Z,97597.06
2022-12-15T23:09:33.699Z,97606.72
2022-12-15T23:15:10.748Z,97601.63
2022-12-15T23:20:39.715Z,97609.59
2022-12-15T23:26:04.706Z,97601.88
2022-12-15T23:31:30.774Z,97567.25
2022-12-15T23:36:57.689Z,97578.69
2022-12-15T23:42:23.700Z,97577.97
2022-12-15T23:47:47.676Z,97572.22
2022-12-15T23:53:16.692Z,97581.91
2022-12-15T23:58:40.740Z,97580.38
